sensor_id;sensor_type;location;lat;lon;timestamp;temperature;humidity
16247;DHT22;8231;50.866;7.944;2023-04-25T00:02:40;2.90;99.90
16247;DHT22;8231;50.866;7.944;2023-04-25T00:05:09;2.90;99.90
16247;DHT22;8231;50.866;7.944;2023-04-25T00:07:38;2.90;99.90
16247;DHT22;8231;50.866;7.944;2023-04-25T00:10:09;3.10;99.90
16247;DHT22;8231;50.866;7.944;2023-04-25T00:12:39;2.80;99.90
16247;DHT22;8231;50.866;7.944;2023-04-25T00:15:09;2.80;99.90
16247;DHT22;8231;50.866;7.944;2023-04-25T00:17:39;2.80;99.90
16247;DHT22;8231;50.866;7.944;2023-04-25T00:20:08;3.00;99.90
16247;DHT22;8231;50.866;7.944;2023-04-25T00:22:37;2.80;99.90
16247;DHT22;8231;50.866;7.944;2023-04-25T00:25:06;2.80;99.90
16247;DHT22;8231;50.866;7.944;2023-04-25T00:27:34;2.80;99.90
16247;DHT22;8231;50.866;7.944;2023-04-25T00:30:04;2.80;99.90
16247;DHT22;8231;50.866;7.944;2023-04-25T00:32:32;2.80;99.90
16247;DHT22;8231;50.866;7.944;2023-04-25T00:35:03;2.80;99.90
16247;DHT22;8231;50.866;7.944;2023-04-25T00:37:31;2.70;99.90
16247;DHT22;8231;50.866;7.944;2023-04-25T00:39:59;2.70;99.90
16247;DHT22;8231;50.866;7.944;2023-04-25T00:42:28;3.30;99.90
16247;DHT22;8231;50.866;7.944;2023-04-25T00:44:57;2.70;99.90
16247;DHT22;8231;50.866;7.944;2023-04-25T00:47:26;2.70;99.90
16247;DHT22;8231;50.866;7.944;2023-04-25T00:49:55;2.70;99.90
16247;DHT22;8231;50.866;7.944;2023-04-25T00:52:25;2.60;99.90
16247;DHT22;8231;50.866;7.944;2023-04-25T00:54:53;2.60;99.90
16247;DHT22;8231;50.866;7.944;2023-04-25T00:57:22;2.60;99.90
16247;DHT22;8231;50.866;7.944;2023-04-25T00:59:51;2.60;99.90
16247;DHT22;8231;50.866;7.944;2023-04-25T01:02:20;2.60;99.90
16247;DHT22;8231;50.866;7.944;2023-04-25T01:04:49;2.60;99.90
16247;DHT22;8231;50.866;7.944;2023-04-25T01:07:17;2.50;99.90
16247;DHT22;8231;50.866;7.944;2023-04-25T01:09:48;2.50;99.90
16247;DHT22;8231;50.866;7.944;2023-04-25T01:12:16;2.50;99.90
16247;DHT22;8231;50.866;7.944;2023-04-25T01:14:46;2.40;99.90
16247;DHT22;8231;50.866;7.944;2023-04-25T01:17:14;2.40;99.90
16247;DHT22;8231;50.866;7.944;2023-04-25T01:19:42;2.40;99.90
16247;DHT22;8231;50.866;7.944;2023-04-25T01:22:12;2.30;99.90
16247;DHT22;8231;50.866;7.944;2023-04-25T01:24:41;2.30;99.90
16247;DHT22;8231;50.866;7.944;2023-04-25T01:27:10;2.20;99.90
16247;DHT22;8231;50.866;7.944;2023-04-25T01:29:39;2.20;99.90
16247;DHT22;8231;50.866;7.944;2023-04-25T01:32:08;2.20;99.90
16247;DHT22;8231;50.866;7.944;2023-04-25T01:34:38;2.10;99.90
16247;DHT22;8231;50.866;7.944;2023-04-25T01:37:06;2.10;99.90
16247;DHT22;8231;50.866;7.944;2023-04-25T01:39:36;2.10;99.90
16247;DHT22;8231;50.866;7.944;2023-04-25T01:42:05;2.10;99.90
16247;DHT22;8231;50.866;7.944;2023-04-25T01:44:33;2.10;99.90
16247;DHT22;8231;50.866;7.944;2023-04-25T01:47:01;2.10;99.90
16247;DHT22;8231;50.866;7.944;2023-04-25T01:49:30;2.90;99.90
16247;DHT22;8231;50.866;7.944;2023-04-25T01:51:58;2.10;99.90
16247;DHT22;8231;50.866;7.944;2023-04-25T01:54:27;2.10;99.90
16247;DHT22;8231;50.866;7.944;2023-04-25T01:56:58;2.10;99.90
16247;DHT22;8231;50.866;7.944;2023-04-25T01:59:27;2.00;99.90
16247;DHT22;8231;50.866;7.944;2023-04-25T02:02:24;2.00;99.90
16247;DHT22;8231;50.866;7.944;2023-04-25T02:04:53;2.10;99.90
16247;DHT22;8231;50.866;7.944;2023-04-25T02:07:26;2.10;99.90
16247;DHT22;8231;50.866;7.944;2023-04-25T02:09:54;2.10;99.90
16247;DHT22;8231;50.866;7.944;2023-04-25T02:12:24;2.20;99.90
16247;DHT22;8231;50.866;7.944;2023-04-25T02:15:13;2.30;99.90
16247;DHT22;8231;50.866;7.944;2023-04-25T02:17:50;2.30;99.90
16247;DHT22;8231;50.866;7.944;2023-04-25T02:20:21;2.40;99.90
16247;DHT22;8231;50.866;7.944;2023-04-25T02:22:49;2.40;99.90
16247;DHT22;8231;50.866;7.944;2023-04-25T02:25:18;2.50;99.90
16247;DHT22;8231;50.866;7.944;2023-04-25T02:27:48;2.60;99.90
16247;DHT22;8231;50.866;7.944;2023-04-25T02:30:18;2.60;99.90
16247;DHT22;8231;50.866;7.944;2023-04-25T02:32:46;2.70;99.90
16247;DHT22;8231;50.866;7.944;2023-04-25T02:35:15;2.80;99.90
16247;DHT22;8231;50.866;7.944;2023-04-25T02:37:43;2.90;99.90
16247;DHT22;8231;50.866;7.944;2023-04-25T02:40:13;3.00;99.90
16247;DHT22;8231;50.866;7.944;2023-04-25T02:42:41;3.10;99.90
16247;DHT22;8231;50.866;7.944;2023-04-25T02:45:11;3.10;99.90
16247;DHT22;8231;50.866;7.944;2023-04-25T02:47:40;3.20;99.90
16247;DHT22;8231;50.866;7.944;2023-04-25T02:50:08;3.60;99.90
16247;DHT22;8231;50.866;7.944;2023-04-25T02:52:38;3.30;99.90
16247;DHT22;8231;50.866;7.944;2023-04-25T02:55:14;3.40;99.90
16247;DHT22;8231;50.866;7.944;2023-04-25T02:57:43;3.40;99.90
16247;DHT22;8231;50.866;7.944;2023-04-25T03:00:16;3.50;99.90
16247;DHT22;8231;50.866;7.944;2023-04-25T03:02:45;3.50;99.90
16247;DHT22;8231;50.866;7.944;2023-04-25T03:05:13;3.50;99.90
16247;DHT22;8231;50.866;7.944;2023-04-25T03:07:41;3.50;99.90
16247;DHT22;8231;50.866;7.944;2023-04-25T03:10:10;3.50;99.90
16247;DHT22;8231;50.866;7.944;2023-04-25T03:12:39;3.50;99.90
16247;DHT22;8231;50.866;7.944;2023-04-25T03:15:08;3.60;99.90
16247;DHT22;8231;50.866;7.944;2023-04-25T03:17:38;3.60;99.90
16247;DHT22;8231;50.866;7.944;2023-04-25T03:20:07;3.60;99.90
16247;DHT22;8231;50.866;7.944;2023-04-25T03:22:36;3.60;99.90
16247;DHT22;8231;50.866;7.944;2023-04-25T03:25:06;3.60;99.90
16247;DHT22;8231;50.866;7.944;2023-04-25T03:27:34;3.50;99.90
16247;DHT22;8231;50.866;7.944;2023-04-25T03:30:03;3.50;99.90
16247;DHT22;8231;50.866;7.944;2023-04-25T03:32:32;3.50;99.90
16247;DHT22;8231;50.866;7.944;2023-04-25T03:35:01;3.50;99.90
16247;DHT22;8231;50.866;7.944;2023-04-25T03:37:31;3.50;99.90
16247;DHT22;8231;50.866;7.944;2023-04-25T03:39:59;3.40;99.90
16247;DHT22;8231;50.866;7.944;2023-04-25T03:42:46;3.40;99.90
16247;DHT22;8231;50.866;7.944;2023-04-25T03:45:15;3.40;99.90
16247;DHT22;8231;50.866;7.944;2023-04-25T03:47:43;3.30;99.90
16247;DHT22;8231;50.866;7.944;2023-04-25T03:50:14;3.30;99.90
16247;DHT22;8231;50.866;7.944;2023-04-25T03:52:42;3.20;99.90
16247;DHT22;8231;50.866;7.944;2023-04-25T03:55:11;3.20;99.90
16247;DHT22;8231;50.866;7.944;2023-04-25T03:57:40;3.10;99.90
16247;DHT22;8231;50.866;7.944;2023-04-25T04:00:09;3.10;99.90
16247;DHT22;8231;50.866;7.944;2023-04-25T04:02:40;3.00;99.90
16247;DHT22;8231;50.866;7.944;2023-04-25T04:05:14;3.00;99.90
16247;DHT22;8231;50.866;7.944;2023-04-25T04:07:49;3.00;99.90
16247;DHT22;8231;50.866;7.944;2023-04-25T04:10:17;3.00;99.90
16247;DHT22;8231;50.866;7.944;2023-04-25T04:12:46;3.00;99.90
16247;DHT22;8231;50.866;7.944;2023-04-25T04:15:14;3.00;99.90
16247;DHT22;8231;50.866;7.944;2023-04-25T04:17:44;3.00;99.90
16247;DHT22;8231;50.866;7.944;2023-04-25T04:20:15;3.10;99.90
16247;DHT22;8231;50.866;7.944;2023-04-25T04:22:43;3.20;99.90
16247;DHT22;8231;50.866;7.944;2023-04-25T04:25:13;3.20;99.90
16247;DHT22;8231;50.866;7.944;2023-04-25T04:28:02;3.20;99.90
16247;DHT22;8231;50.866;7.944;2023-04-25T04:30:48;3.30;99.90
16247;DHT22;8231;50.866;7.944;2023-04-25T04:33:18;3.30;99.90
16247;DHT22;8231;50.866;7.944;2023-04-25T04:35:52;3.30;99.90
16247;DHT22;8231;50.866;7.944;2023-04-25T04:38:22;3.30;99.90
16247;DHT22;8231;50.866;7.944;2023-04-25T04:40:52;3.30;99.90
16247;DHT22;8231;50.866;7.944;2023-04-25T04:43:34;3.30;99.90
16247;DHT22;8231;50.866;7.944;2023-04-25T04:46:28;3.30;99.90
16247;DHT22;8231;50.866;7.944;2023-04-25T04:49:17;3.40;99.90
16247;DHT22;8231;50.866;7.944;2023-04-25T04:52:05;3.40;99.90
16247;DHT22;8231;50.866;7.944;2023-04-25T04:55:11;3.40;99.90
16247;DHT22;8231;50.866;7.944;2023-04-25T04:57:51;3.50;99.90
16247;DHT22;8231;50.866;7.944;2023-04-25T05:00:36;3.50;99.90
16247;DHT22;8231;50.866;7.944;2023-04-25T05:03:27;3.60;99.90
16247;DHT22;8231;50.866;7.944;2023-04-25T05:06:07;3.70;99.90
16247;DHT22;8231;50.866;7.944;2023-04-25T05:09:15;3.80;99.90
16247;DHT22;8231;50.866;7.944;2023-04-25T05:12:02;3.90;99.90
16247;DHT22;8231;50.866;7.944;2023-04-25T05:14:59;3.70;99.90
16247;DHT22;8231;50.866;7.944;2023-04-25T05:17:46;4.00;99.90
16247;DHT22;8231;50.866;7.944;2023-04-25T05:20:30;4.10;99.90
16247;DHT22;8231;50.866;7.944;2023-04-25T05:23:13;4.10;99.90
16247;DHT22;8231;50.866;7.944;2023-04-25T05:25:54;4.20;99.90
16247;DHT22;8231;50.866;7.944;2023-04-25T05:28:37;4.30;99.90
16247;DHT22;8231;50.866;7.944;2023-04-25T05:31:16;4.40;99.90
16247;DHT22;8231;50.866;7.944;2023-04-25T05:33:50;4.50;99.90
16247;DHT22;8231;50.866;7.944;2023-04-25T05:36:21;4.50;99.90
16247;DHT22;8231;50.866;7.944;2023-04-25T05:38:50;4.50;99.90
16247;DHT22;8231;50.866;7.944;2023-04-25T05:41:22;4.60;99.90
16247;DHT22;8231;50.866;7.944;2023-04-25T05:44:11;4.60;99.90
16247;DHT22;8231;50.866;7.944;2023-04-25T05:46:59;5.00;99.90
16247;DHT22;8231;50.866;7.944;2023-04-25T05:49:44;4.80;99.90
16247;DHT22;8231;50.866;7.944;2023-04-25T05:52:25;4.90;99.90
16247;DHT22;8231;50.866;7.944;2023-04-25T05:55:02;5.10;99.90
16247;DHT22;8231;50.866;7.944;2023-04-25T05:57:33;5.20;99.90
16247;DHT22;8231;50.866;7.944;2023-04-25T06:00:02;5.30;99.90
16247;DHT22;8231;50.866;7.944;2023-04-25T06:02:42;5.40;99.90
16247;DHT22;8231;50.866;7.944;2023-04-25T06:05:13;5.40;99.90
16247;DHT22;8231;50.866;7.944;2023-04-25T06:07:42;5.50;99.90
16247;DHT22;8231;50.866;7.944;2023-04-25T06:10:10;5.60;99.90
16247;DHT22;8231;50.866;7.944;2023-04-25T06:12:40;5.60;99.90
16247;DHT22;8231;50.866;7.944;2023-04-25T06:15:09;5.60;99.90
16247;DHT22;8231;50.866;7.944;2023-04-25T06:17:54;5.60;99.90
16247;DHT22;8231;50.866;7.944;2023-04-25T06:20:23;5.70;99.90
16247;DHT22;8231;50.866;7.944;2023-04-25T06:22:53;6.00;99.90
16247;DHT22;8231;50.866;7.944;2023-04-25T06:25:31;5.70;99.90
16247;DHT22;8231;50.866;7.944;2023-04-25T06:28:04;5.80;99.90
16247;DHT22;8231;50.866;7.944;2023-04-25T06:30:32;5.90;99.90
16247;DHT22;8231;50.866;7.944;2023-04-25T06:33:06;6.00;99.90
16247;DHT22;8231;50.866;7.944;2023-04-25T06:35:35;6.10;99.90
16247;DHT22;8231;50.866;7.944;2023-04-25T06:38:04;6.10;99.90
16247;DHT22;8231;50.866;7.944;2023-04-25T06:40:32;6.10;99.90
16247;DHT22;8231;50.866;7.944;2023-04-25T06:43:02;6.20;99.90
16247;DHT22;8231;50.866;7.944;2023-04-25T06:45:48;6.70;99.90
16247;DHT22;8231;50.866;7.944;2023-04-25T06:48:17;6.30;99.90
16247;DHT22;8231;50.866;7.944;2023-04-25T06:50:45;6.60;99.90
16247;DHT22;8231;50.866;7.944;2023-04-25T06:53:14;6.30;99.90
16247;DHT22;8231;50.866;7.944;2023-04-25T06:55:45;6.30;99.90
16247;DHT22;8231;50.866;7.944;2023-04-25T06:58:19;6.30;99.90
16247;DHT22;8231;50.866;7.944;2023-04-25T07:01:19;6.50;99.90
16247;DHT22;8231;50.866;7.944;2023-04-25T07:03:48;6.50;99.90
16247;DHT22;8231;50.866;7.944;2023-04-25T07:06:18;6.50;99.90
16247;DHT22;8231;50.866;7.944;2023-04-25T07:08:46;6.50;99.90
16247;DHT22;8231;50.866;7.944;2023-04-25T07:11:15;6.40;99.90
16247;DHT22;8231;50.866;7.944;2023-04-25T07:13:45;6.30;99.90
16247;DHT22;8231;50.866;7.944;2023-04-25T07:16:13;6.30;99.90
16247;DHT22;8231;50.866;7.944;2023-04-25T07:18:41;6.20;99.90
16247;DHT22;8231;50.866;7.944;2023-04-25T07:21:09;6.10;99.90
16247;DHT22;8231;50.866;7.944;2023-04-25T07:23:39;6.00;99.90
16247;DHT22;8231;50.866;7.944;2023-04-25T07:26:13;5.80;99.90
16247;DHT22;8231;50.866;7.944;2023-04-25T07:29:02;5.80;99.90
16247;DHT22;8231;50.866;7.944;2023-04-25T07:31:31;5.90;99.90
16247;DHT22;8231;50.866;7.944;2023-04-25T07:33:59;6.00;99.90
16247;DHT22;8231;50.866;7.944;2023-04-25T07:36:28;6.10;99.90
16247;DHT22;8231;50.866;7.944;2023-04-25T07:38:57;6.30;99.90
16247;DHT22;8231;50.866;7.944;2023-04-25T07:41:26;6.40;99.90
16247;DHT22;8231;50.866;7.944;2023-04-25T07:43:54;6.50;99.90
16247;DHT22;8231;50.866;7.944;2023-04-25T07:46:24;6.70;99.90
16247;DHT22;8231;50.866;7.944;2023-04-25T07:48:53;6.90;99.90
16247;DHT22;8231;50.866;7.944;2023-04-25T07:51:21;7.60;99.90
16247;DHT22;8231;50.866;7.944;2023-04-25T07:53:52;8.40;99.90
16247;DHT22;8231;50.866;7.944;2023-04-25T07:56:21;9.30;99.90
16247;DHT22;8231;50.866;7.944;2023-04-25T07:58:51;9.80;99.90
16247;DHT22;8231;50.866;7.944;2023-04-25T08:01:21;9.80;99.90
16247;DHT22;8231;50.866;7.944;2023-04-25T08:03:58;10.30;99.90
16247;DHT22;8231;50.866;7.944;2023-04-25T08:06:38;11.20;99.90
16247;DHT22;8231;50.866;7.944;2023-04-25T08:09:12;12.10;99.90
16247;DHT22;8231;50.866;7.944;2023-04-25T08:11:41;12.90;99.90
16247;DHT22;8231;50.866;7.944;2023-04-25T08:14:12;13.60;99.90
16247;DHT22;8231;50.866;7.944;2023-04-25T08:16:42;13.40;99.90
16247;DHT22;8231;50.866;7.944;2023-04-25T08:19:15;13.00;99.90
16247;DHT22;8231;50.866;7.944;2023-04-25T08:21:44;12.70;99.90
16247;DHT22;8231;50.866;7.944;2023-04-25T08:24:17;12.50;99.90
16247;DHT22;8231;50.866;7.944;2023-04-25T08:26:45;12.40;99.90
16247;DHT22;8231;50.866;7.944;2023-04-25T08:29:16;12.50;99.90
16247;DHT22;8231;50.866;7.944;2023-04-25T08:31:44;12.30;99.90
16247;DHT22;8231;50.866;7.944;2023-04-25T08:34:15;12.10;99.90
16247;DHT22;8231;50.866;7.944;2023-04-25T08:36:47;11.80;99.90
16247;DHT22;8231;50.866;7.944;2023-04-25T08:39:23;11.90;99.90
16247;DHT22;8231;50.866;7.944;2023-04-25T08:42:15;11.70;99.90
16247;DHT22;8231;50.866;7.944;2023-04-25T08:44:45;11.40;99.90
16247;DHT22;8231;50.866;7.944;2023-04-25T08:47:14;11.20;99.90
16247;DHT22;8231;50.866;7.944;2023-04-25T08:49:53;10.80;99.90
16247;DHT22;8231;50.866;7.944;2023-04-25T08:52:23;10.60;99.90
16247;DHT22;8231;50.866;7.944;2023-04-25T08:54:53;10.40;99.90
16247;DHT22;8231;50.866;7.944;2023-04-25T08:57:22;10.50;99.90
16247;DHT22;8231;50.866;7.944;2023-04-25T08:59:52;10.30;99.90
16247;DHT22;8231;50.866;7.944;2023-04-25T09:02:22;10.20;99.90
16247;DHT22;8231;50.866;7.944;2023-04-25T09:04:54;10.30;99.90
16247;DHT22;8231;50.866;7.944;2023-04-25T09:07:23;10.50;99.90
16247;DHT22;8231;50.866;7.944;2023-04-25T09:09:53;10.80;99.90
16247;DHT22;8231;50.866;7.944;2023-04-25T09:12:22;11.60;99.90
16247;DHT22;8231;50.866;7.944;2023-04-25T09:15:03;12.20;99.90
16247;DHT22;8231;50.866;7.944;2023-04-25T09:17:59;12.20;99.90
16247;DHT22;8231;50.866;7.944;2023-04-25T09:20:41;12.00;99.90
16247;DHT22;8231;50.866;7.944;2023-04-25T09:23:27;12.00;99.90
16247;DHT22;8231;50.866;7.944;2023-04-25T09:25:55;11.60;99.90
16247;DHT22;8231;50.866;7.944;2023-04-25T09:28:24;11.30;99.90
16247;DHT22;8231;50.866;7.944;2023-04-25T09:30:58;11.20;99.90
16247;DHT22;8231;50.866;7.944;2023-04-25T09:33:33;11.10;99.90
16247;DHT22;8231;50.866;7.944;2023-04-25T09:36:06;11.10;99.90
16247;DHT22;8231;50.866;7.944;2023-04-25T09:38:46;10.90;99.90
16247;DHT22;8231;50.866;7.944;2023-04-25T09:41:23;10.60;99.90
16247;DHT22;8231;50.866;7.944;2023-04-25T09:43:56;10.50;99.90
16247;DHT22;8231;50.866;7.944;2023-04-25T09:46:33;10.30;99.90
16247;DHT22;8231;50.866;7.944;2023-04-25T09:49:07;10.00;99.90
16247;DHT22;8231;50.866;7.944;2023-04-25T09:51:55;10.00;99.90
16247;DHT22;8231;50.866;7.944;2023-04-25T09:54:27;9.90;99.90
16247;DHT22;8231;50.866;7.944;2023-04-25T09:57:12;9.90;99.90
16247;DHT22;8231;50.866;7.944;2023-04-25T09:59:45;9.70;99.90
16247;DHT22;8231;50.866;7.944;2023-04-25T10:02:16;9.60;99.90
16247;DHT22;8231;50.866;7.944;2023-04-25T10:04:50;9.50;99.90
16247;DHT22;8231;50.866;7.944;2023-04-25T10:07:31;9.50;99.90
16247;DHT22;8231;50.866;7.944;2023-04-25T10:10:01;9.50;99.90
16247;DHT22;8231;50.866;7.944;2023-04-25T10:12:33;9.60;99.90
16247;DHT22;8231;50.866;7.944;2023-04-25T10:15:03;9.50;99.90
16247;DHT22;8231;50.866;7.944;2023-04-25T10:17:33;9.60;99.90
16247;DHT22;8231;50.866;7.944;2023-04-25T10:20:02;9.80;99.90
16247;DHT22;8231;50.866;7.944;2023-04-25T10:22:36;10.10;99.90
16247;DHT22;8231;50.866;7.944;2023-04-25T10:25:06;10.30;99.90
16247;DHT22;8231;50.866;7.944;2023-04-25T10:27:35;10.70;99.90
16247;DHT22;8231;50.866;7.944;2023-04-25T10:30:26;10.90;99.90
16247;DHT22;8231;50.866;7.944;2023-04-25T10:32:55;11.00;99.90
16247;DHT22;8231;50.866;7.944;2023-04-25T10:35:25;11.20;99.90
16247;DHT22;8231;50.866;7.944;2023-04-25T10:38:00;11.20;99.90
16247;DHT22;8231;50.866;7.944;2023-04-25T10:40:30;11.10;99.90
16247;DHT22;8231;50.866;7.944;2023-04-25T10:43:35;10.80;99.90
16247;DHT22;8231;50.866;7.944;2023-04-25T10:46:19;10.70;99.90
16247;DHT22;8231;50.866;7.944;2023-04-25T10:48:51;10.90;99.90
16247;DHT22;8231;50.866;7.944;2023-04-25T10:51:21;11.20;99.90
16247;DHT22;8231;50.866;7.944;2023-04-25T10:54:02;11.50;99.90
16247;DHT22;8231;50.866;7.944;2023-04-25T10:56:32;12.00;99.90
16247;DHT22;8231;50.866;7.944;2023-04-25T10:59:08;12.10;99.90
16247;DHT22;8231;50.866;7.944;2023-04-25T11:01:39;12.00;99.90
16247;DHT22;8231;50.866;7.944;2023-04-25T11:04:20;12.00;99.90
16247;DHT22;8231;50.866;7.944;2023-04-25T11:07:03;11.80;99.90
16247;DHT22;8231;50.866;7.944;2023-04-25T11:09:38;11.60;99.90
16247;DHT22;8231;50.866;7.944;2023-04-25T11:12:08;11.30;99.90
16247;DHT22;8231;50.866;7.944;2023-04-25T11:14:39;11.10;99.90
16247;DHT22;8231;50.866;7.944;2023-04-25T11:17:07;10.60;99.90
16247;DHT22;8231;50.866;7.944;2023-04-25T11:19:36;10.50;99.90
16247;DHT22;8231;50.866;7.944;2023-04-25T11:22:04;10.80;99.90
16247;DHT22;8231;50.866;7.944;2023-04-25T11:24:36;11.10;99.90
16247;DHT22;8231;50.866;7.944;2023-04-25T11:27:04;11.20;99.90
16247;DHT22;8231;50.866;7.944;2023-04-25T11:29:34;11.60;99.90
16247;DHT22;8231;50.866;7.944;2023-04-25T11:32:03;12.20;99.90
16247;DHT22;8231;50.866;7.944;2023-04-25T11:34:32;12.50;99.90
16247;DHT22;8231;50.866;7.944;2023-04-25T11:37:02;12.60;99.90
16247;DHT22;8231;50.866;7.944;2023-04-25T11:39:30;12.50;99.90
16247;DHT22;8231;50.866;7.944;2023-04-25T11:42:00;12.30;99.80
16247;DHT22;8231;50.866;7.944;2023-04-25T11:44:37;12.00;99.90
16247;DHT22;8231;50.866;7.944;2023-04-25T11:47:06;11.80;99.90
16247;DHT22;8231;50.866;7.944;2023-04-25T11:49:35;11.60;99.90
16247;DHT22;8231;50.866;7.944;2023-04-25T11:52:06;11.30;99.90
16247;DHT22;8231;50.866;7.944;2023-04-25T11:54:36;11.10;99.90
16247;DHT22;8231;50.866;7.944;2023-04-25T11:57:06;11.00;99.90
16247;DHT22;8231;50.866;7.944;2023-04-25T11:59:34;11.00;99.70
16247;DHT22;8231;50.866;7.944;2023-04-25T12:02:03;11.20;97.80
16247;DHT22;8231;50.866;7.944;2023-04-25T12:04:33;11.80;99.90
16247;DHT22;8231;50.866;7.944;2023-04-25T12:07:03;12.70;99.90
16247;DHT22;8231;50.866;7.944;2023-04-25T12:09:33;13.50;95.50
16247;DHT22;8231;50.866;7.944;2023-04-25T12:12:01;14.20;94.70
16247;DHT22;8231;50.866;7.944;2023-04-25T12:14:33;14.40;92.70
16247;DHT22;8231;50.866;7.944;2023-04-25T12:17:04;14.20;93.40
16247;DHT22;8231;50.866;7.944;2023-04-25T12:19:36;14.10;92.10
16247;DHT22;8231;50.866;7.944;2023-04-25T12:22:19;13.80;91.20
16247;DHT22;8231;50.866;7.944;2023-04-25T12:24:48;13.50;92.30
16247;DHT22;8231;50.866;7.944;2023-04-25T12:27:17;13.50;92.80
16247;DHT22;8231;50.866;7.944;2023-04-25T12:29:54;13.50;93.70
16247;DHT22;8231;50.866;7.944;2023-04-25T12:32:23;13.80;92.20
16247;DHT22;8231;50.866;7.944;2023-04-25T12:34:51;14.00;93.50
16247;DHT22;8231;50.866;7.944;2023-04-25T12:37:20;13.80;91.90
16247;DHT22;8231;50.866;7.944;2023-04-25T12:39:48;13.50;90.70
16247;DHT22;8231;50.866;7.944;2023-04-25T12:42:17;13.20;90.90
16247;DHT22;8231;50.866;7.944;2023-04-25T12:44:45;12.90;88.70
16247;DHT22;8231;50.866;7.944;2023-04-25T12:47:15;12.50;89.60
16247;DHT22;8231;50.866;7.944;2023-04-25T12:49:43;12.40;89.10
16247;DHT22;8231;50.866;7.944;2023-04-25T12:52:12;12.40;90.10
16247;DHT22;8231;50.866;7.944;2023-04-25T12:54:40;12.20;86.60
16247;DHT22;8231;50.866;7.944;2023-04-25T12:57:08;12.20;91.20
16247;DHT22;8231;50.866;7.944;2023-04-25T12:59:36;12.10;89.50
16247;DHT22;8231;50.866;7.944;2023-04-25T13:02:05;12.20;86.70
16247;DHT22;8231;50.866;7.944;2023-04-25T13:04:34;12.30;84.30
16247;DHT22;8231;50.866;7.944;2023-04-25T13:07:03;12.50;88.90
16247;DHT22;8231;50.866;7.944;2023-04-25T13:09:32;12.80;85.30
16247;DHT22;8231;50.866;7.944;2023-04-25T13:12:00;13.10;90.10
16247;DHT22;8231;50.866;7.944;2023-04-25T13:14:28;13.50;89.50
16247;DHT22;8231;50.866;7.944;2023-04-25T13:16:56;13.80;87.20
16247;DHT22;8231;50.866;7.944;2023-04-25T13:19:25;14.10;89.40
16247;DHT22;8231;50.866;7.944;2023-04-25T13:21:54;13.80;87.00
16247;DHT22;8231;50.866;7.944;2023-04-25T13:24:23;13.90;88.40
16247;DHT22;8231;50.866;7.944;2023-04-25T13:26:51;13.90;88.50
16247;DHT22;8231;50.866;7.944;2023-04-25T13:29:19;13.90;86.70
16247;DHT22;8231;50.866;7.944;2023-04-25T13:31:48;13.60;86.90
16247;DHT22;8231;50.866;7.944;2023-04-25T13:34:16;13.30;88.70
16247;DHT22;8231;50.866;7.944;2023-04-25T13:36:44;12.80;90.10
16247;DHT22;8231;50.866;7.944;2023-04-25T13:39:13;12.90;92.00
16247;DHT22;8231;50.866;7.944;2023-04-25T13:41:42;12.30;91.80
16247;DHT22;8231;50.866;7.944;2023-04-25T13:44:10;12.30;90.70
16247;DHT22;8231;50.866;7.944;2023-04-25T13:46:38;12.50;91.60
16247;DHT22;8231;50.866;7.944;2023-04-25T13:49:13;12.70;92.50
16247;DHT22;8231;50.866;7.944;2023-04-25T13:51:42;12.90;90.70
16247;DHT22;8231;50.866;7.944;2023-04-25T13:54:10;12.90;90.20
16247;DHT22;8231;50.866;7.944;2023-04-25T13:56:40;12.60;90.40
16247;DHT22;8231;50.866;7.944;2023-04-25T13:59:09;12.60;90.20
16247;DHT22;8231;50.866;7.944;2023-04-25T14:01:38;12.60;91.10
16247;DHT22;8231;50.866;7.944;2023-04-25T14:04:06;13.10;90.60
16247;DHT22;8231;50.866;7.944;2023-04-25T14:06:34;12.60;89.90
16247;DHT22;8231;50.866;7.944;2023-04-25T14:09:04;12.50;91.50
16247;DHT22;8231;50.866;7.944;2023-04-25T15:04:27;11.20;95.60
16247;DHT22;8231;50.866;7.944;2023-04-25T15:07:56;11.10;95.60
16247;DHT22;8231;50.866;7.944;2023-04-25T15:20:25;11.60;94.90
16247;DHT22;8231;50.866;7.944;2023-04-25T15:22:54;11.80;95.40
16247;DHT22;8231;50.866;7.944;2023-04-25T15:25:22;12.00;94.20
16247;DHT22;8231;50.866;7.944;2023-04-25T15:27:51;11.80;94.40
16247;DHT22;8231;50.866;7.944;2023-04-25T15:30:20;11.80;93.30
16247;DHT22;8231;50.866;7.944;2023-04-25T15:32:48;11.60;94.30
16247;DHT22;8231;50.866;7.944;2023-04-25T15:35:17;11.50;92.80
16247;DHT22;8231;50.866;7.944;2023-04-25T15:37:46;11.30;92.00
16247;DHT22;8231;50.866;7.944;2023-04-25T15:40:15;11.50;92.30
16247;DHT22;8231;50.866;7.944;2023-04-25T15:42:44;11.50;90.50
16247;DHT22;8231;50.866;7.944;2023-04-25T15:45:14;11.40;91.30
16247;DHT22;8231;50.866;7.944;2023-04-25T15:47:44;11.30;92.10
16247;DHT22;8231;50.866;7.944;2023-04-25T15:50:13;11.20;92.30
16247;DHT22;8231;50.866;7.944;2023-04-25T15:52:42;11.20;93.30
16247;DHT22;8231;50.866;7.944;2023-04-25T15:55:11;11.30;93.20
16247;DHT22;8231;50.866;7.944;2023-04-25T15:57:40;11.20;92.50
16247;DHT22;8231;50.866;7.944;2023-04-25T16:00:10;11.30;94.00
16247;DHT22;8231;50.866;7.944;2023-04-25T16:02:40;11.20;93.90
16247;DHT22;8231;50.866;7.944;2023-04-25T16:05:09;11.10;92.30
16247;DHT22;8231;50.866;7.944;2023-04-25T16:07:39;10.80;94.80
16247;DHT22;8231;50.866;7.944;2023-04-25T16:10:09;10.60;95.40
16247;DHT22;8231;50.866;7.944;2023-04-25T16:12:39;10.40;96.00
16247;DHT22;8231;50.866;7.944;2023-04-25T16:15:08;10.20;96.30
16247;DHT22;8231;50.866;7.944;2023-04-25T16:17:39;10.10;97.40
16247;DHT22;8231;50.866;7.944;2023-04-25T16:20:09;10.10;97.20
16247;DHT22;8231;50.866;7.944;2023-04-25T16:22:40;10.00;97.40
16247;DHT22;8231;50.866;7.944;2023-04-25T16:25:09;10.00;98.70
16247;DHT22;8231;50.866;7.944;2023-04-25T16:27:42;9.90;99.70
16247;DHT22;8231;50.866;7.944;2023-04-25T16:30:11;9.80;98.30
16247;DHT22;8231;50.866;7.944;2023-04-25T16:32:39;9.80;98.60
16247;DHT22;8231;50.866;7.944;2023-04-25T16:35:11;9.70;98.30
16247;DHT22;8231;50.866;7.944;2023-04-25T16:37:40;9.60;98.40
16247;DHT22;8231;50.866;7.944;2023-04-25T16:40:08;9.60;97.80
16247;DHT22;8231;50.866;7.944;2023-04-25T16:42:37;9.60;98.90
16247;DHT22;8231;50.866;7.944;2023-04-25T16:45:07;9.80;98.00
16247;DHT22;8231;50.866;7.944;2023-04-25T16:47:36;9.80;97.00
16247;DHT22;8231;50.866;7.944;2023-04-25T16:50:06;9.90;97.70
16247;DHT22;8231;50.866;7.944;2023-04-25T16:52:34;9.90;97.10
16247;DHT22;8231;50.866;7.944;2023-04-25T16:55:02;9.90;97.50
16247;DHT22;8231;50.866;7.944;2023-04-25T16:57:31;10.00;96.50
16247;DHT22;8231;50.866;7.944;2023-04-25T16:59:59;10.10;96.40
16247;DHT22;8231;50.866;7.944;2023-04-25T17:02:29;10.10;96.00
16247;DHT22;8231;50.866;7.944;2023-04-25T17:04:57;10.10;95.30
16247;DHT22;8231;50.866;7.944;2023-04-25T17:07:25;9.70;96.20
16247;DHT22;8231;50.866;7.944;2023-04-25T17:09:53;9.60;96.60
16247;DHT22;8231;50.866;7.944;2023-04-25T17:12:22;9.70;97.50
16247;DHT22;8231;50.866;7.944;2023-04-25T17:14:51;9.70;97.10
16247;DHT22;8231;50.866;7.944;2023-04-25T17:17:19;9.60;97.00
16247;DHT22;8231;50.866;7.944;2023-04-25T17:19:48;9.50;97.10
16247;DHT22;8231;50.866;7.944;2023-04-25T17:22:17;9.40;97.30
16247;DHT22;8231;50.866;7.944;2023-04-25T17:24:45;9.30;97.30
16247;DHT22;8231;50.866;7.944;2023-04-25T17:27:13;9.10;97.30
16247;DHT22;8231;50.866;7.944;2023-04-25T17:29:42;9.10;98.20